Time;durP1;ratioP1;P1;durP2;ratioP2;P2;SDS_P1;SDS_P2;PMS_P1;PMS_P2;Temp;Humidity;BMP_temperature;BMP_pressure;BME280_temperature;BME280_humidity;BME280_pressure;Samples;Min_cycle;Max_cycle;Signal;HPM_P1;HPM_P2
2024/04/15 00:02:07;;;;;;;8.57;4.20;;;;;;;14.73;49.46;101480.78;5243690;26;113303;-80
2024/04/15 00:04:35;;;;;;;8.93;3.90;;;;;;;14.72;49.30;101482.59;5255066;26;121610;-79
2024/04/15 00:07:02;;;;;;;10.23;4.07;;;;;;;14.68;49.77;101474.84;5296308;26;122063;-80
2024/04/15 00:09:30;;;;;;;9.00;4.15;;;;;;;14.66;49.88;101472.25;5295836;26;112669;-79
2024/04/15 00:11:57;;;;;;;9.50;4.00;;;;;;;14.64;49.38;101457.28;5286461;26;112212;-81
2024/04/15 00:14:24;;;;;;;8.40;4.28;;;;;;;14.60;49.74;101465.44;5294661;26;121540;-82
2024/04/15 00:16:52;;;;;;;8.25;3.95;;;;;;;14.58;49.68;101464.66;5301155;26;124765;-81
2024/04/15 00:19:19;;;;;;;9.18;4.45;;;;;;;14.59;50.03;101450.38;5297687;26;112683;-80
2024/04/15 00:21:46;;;;;;;10.13;4.50;;;;;;;14.60;50.01;101461.91;5294654;26;113040;-82
2024/04/15 00:24:14;;;;;;;11.25;4.35;;;;;;;14.58;49.88;101454.00;5262181;26;122696;-79
2024/04/15 00:26:41;;;;;;;8.55;4.28;;;;;;;14.56;50.12;101450.50;5288121;26;122684;-81
2024/04/15 00:29:08;;;;;;;10.50;4.50;;;;;;;14.55;49.89;101438.09;5262503;26;112570;-80
2024/04/15 00:31:36;;;;;;;10.00;4.65;;;;;;;14.54;49.92;101431.06;5265272;26;110517;-80
2024/04/15 00:34:03;;;;;;;9.15;4.50;;;;;;;14.52;50.14;101419.63;5290637;26;122614;-80
2024/04/15 00:36:31;;;;;;;8.90;3.95;;;;;;;14.52;49.82;101411.63;5285054;26;121856;-79
2024/04/15 00:38:58;;;;;;;7.80;4.55;;;;;;;14.50;49.99;101410.81;5285866;26;113737;-79
2024/04/15 00:41:25;;;;;;;10.88;4.30;;;;;;;14.48;49.94;101407.38;5277670;26;112324;-79
2024/04/15 00:43:52;;;;;;;9.07;4.72;;;;;;;14.47;49.81;101408.34;5276918;26;123352;-79
2024/04/15 00:46:21;;;;;;;6.50;4.07;;;;;;;14.46;50.09;101401.28;5287777;26;122735;-81
2024/04/15 00:48:48;;;;;;;10.88;4.93;;;;;;;14.44;49.77;101400.50;5259118;26;113098;-80
2024/04/15 00:51:16;;;;;;;8.07;4.13;;;;;;;14.39;49.89;101395.41;5284576;26;113233;-80
2024/04/15 00:53:46;;;;;;;10.02;4.97;;;;;;;14.36;49.81;101389.38;5284755;26;124292;-80
2024/04/15 00:56:14;;;;;;;8.13;4.20;;;;;;;14.32;49.95;101382.50;5263773;26;121603;-80
2024/04/15 00:58:42;;;;;;;8.32;4.70;;;;;;;14.29;49.76;101372.00;5285103;26;111244;-81
2024/04/15 01:01:10;;;;;;;11.32;4.70;;;;;;;14.24;49.54;101363.38;5287842;26;112387;-81
2024/04/15 01:03:38;;;;;;;9.85;5.03;;;;;;;14.18;49.51;101370.75;5296134;26;122526;-81
2024/04/15 01:06:06;;;;;;;11.13;5.07;;;;;;;14.13;49.59;101364.78;5292723;26;121075;-81
2024/04/15 01:08:33;;;;;;;11.43;4.95;;;;;;;14.10;49.65;101359.63;5286344;26;112671;-80
2024/04/15 01:11:01;;;;;;;11.13;4.18;;;;;;;14.05;49.47;101366.97;5261939;26;112548;-82
2024/04/15 01:13:28;;;;;;;10.80;5.35;;;;;;;14.00;49.38;101361.03;5275873;26;122369;-80
2024/04/15 01:16:00;;;;;;;9.27;5.03;;;;;;;13.95;49.51;101357.75;5276725;26;122078;-81
2024/04/15 01:18:28;;;;;;;13.63;4.90;;;;;;;13.92;49.69;101352.56;5282039;26;111374;-81
2024/04/15 01:20:57;;;;;;;10.60;5.38;;;;;;;13.86;49.63;101345.75;5279627;26;112707;-81
2024/04/15 01:23:37;;;;;;;10.68;5.47;;;;;;;13.79;49.89;101345.22;5283379;26;122294;-81
2024/04/15 01:26:05;;;;;;;9.32;5.53;;;;;;;13.76;49.85;101347.16;5258463;26;122278;-80
2024/04/15 01:28:32;;;;;;;12.07;5.45;;;;;;;13.72;49.78;101338.47;5269774;26;112796;-81
2024/04/15 01:30:59;;;;;;;11.65;5.63;;;;;;;13.68;49.76;101339.56;5260183;26;112801;-80
2024/04/15 01:33:27;;;;;;;9.43;5.93;;;;;;;13.63;49.77;101338.94;5284494;26;122466;-80
2024/04/15 01:35:54;;;;;;;13.88;6.15;;;;;;;13.59;49.99;101340.03;5296719;26;122156;-80
2024/04/15 01:38:21;;;;;;;9.07;5.53;;;;;;;13.55;50.06;101338.47;5286443;26;113081;-80
2024/04/15 01:40:49;;;;;;;13.40;6.15;;;;;;;13.49;49.97;101339.63;5277738;26;113344;-81
2024/04/15 01:43:17;;;;;;;13.95;6.22;;;;;;;13.45;50.28;101330.06;5265052;26;121513;-81
2024/04/15 01:45:45;;;;;;;11.73;6.07;;;;;;;13.41;50.25;101342.66;5283495;26;122793;-81
2024/04/15 01:48:13;;;;;;;11.18;5.85;;;;;;;13.38;50.44;101337.47;5281021;26;112087;-81
2024/04/15 01:50:40;;;;;;;11.85;6.22;;;;;;;13.32;50.19;101332.47;5286905;26;111311;-81
2024/04/15 01:53:11;;;;;;;14.52;6.82;;;;;;;13.28;50.45;101335.31;5243340;26;122629;-81
2024/04/15 01:55:39;;;;;;;12.73;6.30;;;;;;;13.25;50.44;101325.69;5288400;26;122200;-80
2024/04/15 01:58:06;;;;;;;11.63;6.30;;;;;;;13.22;50.43;101325.81;5245976;26;112908;-82
2024/04/15 02:00:34;;;;;;;11.27;5.78;;;;;;;13.21;50.27;101329.44;5285652;26;111534;-81
2024/04/15 02:03:01;;;;;;;13.98;6.60;;;;;;;13.16;50.68;101323.47;5287079;26;122236;-80
2024/04/15 02:05:29;;;;;;;9.48;5.80;;;;;;;13.15;50.74;101319.09;5284309;26;122321;-80
2024/04/15 02:07:57;;;;;;;13.35;6.50;;;;;;;13.11;50.80;101306.84;5292307;26;112348;-81
2024/04/15 02:10:24;;;;;;;14.18;6.05;;;;;;;13.09;50.72;101314.94;5278495;26;112814;-81
2024/04/15 02:12:52;;;;;;;11.43;5.75;;;;;;;13.07;50.87;101310.59;5299043;26;123456;-81
2024/04/15 02:15:20;;;;;;;9.50;5.50;;;;;;;13.06;50.80;101301.78;5311548;26;122315;-82
2024/04/15 02:17:47;;;;;;;10.70;5.90;;;;;;;13.05;50.90;101298.25;5310906;26;112726;-81
2024/04/15 02:20:15;;;;;;;14.43;6.60;;;;;;;13.01;50.75;101290.50;5272290;26;111703;-81
2024/04/15 02:22:42;;;;;;;10.38;5.47;;;;;;;13.01;50.87;101283.38;5312115;26;121169;-81
2024/04/15 02:25:10;;;;;;;9.55;5.70;;;;;;;13.00;51.01;101273.69;5308996;26;121979;-81
2024/04/15 02:27:37;;;;;;;10.80;5.30;;;;;;;13.01;50.64;101270.06;5314657;26;113830;-81
2024/04/15 02:30:05;;;;;;;14.23;5.50;;;;;;;12.99;50.81;101271.94;5299958;26;112290;-82
2024/04/15 02:32:33;;;;;;;11.18;5.38;;;;;;;12.97;50.90;101265.84;5293613;26;122956;-80
2024/04/15 02:35:00;;;;;;;10.13;5.10;;;;;;;12.96;51.02;101272.13;5290651;26;122433;-81
2024/04/15 02:37:27;;;;;;;9.85;4.88;;;;;;;12.94;50.88;101263.34;5267261;26;112513;-79
2024/04/15 02:39:55;;;;;;;11.95;4.88;;;;;;;12.95;50.79;101264.19;5300802;26;111570;-81
2024/04/15 02:42:22;;;;;;;10.00;5.20;;;;;;;12.95;50.90;101259.75;5277708;26;120993;-81
2024/04/15 02:44:49;;;;;;;11.32;4.75;;;;;;;12.95;50.87;101258.88;5300152;26;121640;-80
2024/04/15 02:47:17;;;;;;;10.95;5.30;;;;;;;12.94;50.92;101258.03;5282727;26;112437;-80
2024/04/15 02:49:44;;;;;;;10.90;4.60;;;;;;;12.93;51.00;101248.31;5242900;26;111897;-80
2024/04/15 02:52:12;;;;;;;10.18;4.55;;;;;;;12.91;50.91;101246.69;5281325;26;122717;-80
2024/04/15 02:54:39;;;;;;;10.50;4.72;;;;;;;12.91;50.94;101246.69;5281766;26;122148;-80
2024/04/15 02:57:06;;;;;;;9.52;4.65;;;;;;;12.87;51.04;101245.97;5279304;26;112400;-80
2024/04/15 02:59:34;;;;;;;15.13;3.97;;;;;;;12.87;50.82;101245.13;5241035;26;113576;-81
2024/04/15 03:02:01;;;;;;;9.15;4.35;;;;;;;12.84;50.85;101248.75;5252554;26;123286;-81
2024/04/15 03:04:30;;;;;;;12.00;4.15;;;;;;;12.80;50.96;101248.03;5281606;26;122473;-80
2024/04/15 03:06:57;;;;;;;11.27;4.20;;;;;;;12.79;50.60;101248.13;5241789;26;111678;-80
2024/04/15 03:09:26;;;;;;;9.80;3.50;;;;;;;12.76;50.44;101241.16;5272545;26;112413;-79
2024/04/15 03:11:53;;;;;;;10.25;3.60;;;;;;;12.73;50.76;101237.78;5267722;26;123033;-80
2024/04/15 03:14:21;;;;;;;6.53;3.35;;;;;;;12.72;50.49;101230.75;5275451;26;123867;-80
2024/04/15 03:16:48;;;;;;;9.77;3.85;;;;;;;12.70;50.56;101224.66;5272606;26;113515;-79
2024/04/15 03:19:16;;;;;;;13.02;3.22;;;;;;;12.66;50.59;101216.81;5260752;26;113944;-80
2024/04/15 03:21:43;;;;;;;9.10;3.42;;;;;;;12.64;50.58;101218.69;5241957;26;121688;-80
2024/04/15 03:24:11;;;;;;;8.73;3.47;;;;;;;12.62;50.53;101209.94;5285003;26;122254;-82
2024/04/15 03:26:38;;;;;;;9.15;3.15;;;;;;;12.58;50.49;101224.31;5277641;26;113434;-79
2024/04/15 03:29:06;;;;;;;8.02;2.88;;;;;;;12.53;50.41;101210.38;5274978;26;113564;-80
2024/04/15 03:31:33;;;;;;;11.82;3.47;;;;;;;12.51;50.50;101212.25;5267662;26;123134;-78
2024/04/15 03:34:00;;;;;;;13.52;3.38;;;;;;;12.48;50.61;101200.91;5284371;26;122543;-80
2024/04/15 03:36:28;;;;;;;6.80;2.90;;;;;;;12.46;50.68;101200.97;5230881;26;111806;-79
2024/04/15 03:38:55;;;;;;;12.85;3.03;;;;;;;12.44;50.61;101190.41;5262712;26;112112;-81
2024/04/15 03:41:23;;;;;;;8.93;3.28;;;;;;;12.42;50.65;101181.66;5263203;26;122769;-80
2024/04/15 03:43:51;;;;;;;8.20;2.88;;;;;;;12.39;50.86;101178.28;5274159;26;122263;-80
2024/04/15 03:46:19;;;;;;;11.43;3.40;;;;;;;12.38;50.85;101176.56;5276535;26;112565;-80
2024/04/15 03:48:46;;;;;;;10.77;3.67;;;;;;;12.34;50.71;101167.88;5276478;26;112524;-80
2024/04/15 03:51:13;;;;;;;8.90;2.75;;;;;;;12.33;50.71;101170.59;5268390;26;122284;-80
2024/04/15 03:53:41;;;;;;;10.93;3.22;;;;;;;12.33;50.86;101175.91;5280550;26;123078;-80
2024/04/15 03:56:08;;;;;;;9.70;2.75;;;;;;;12.32;50.73;101168.88;5271088;26;112330;-80
2024/04/15 03:58:35;;;;;;;8.43;2.70;;;;;;;12.32;50.84;101166.22;5282426;26;112248;-80
2024/04/15 04:01:03;;;;;;;9.60;2.85;;;;;;;12.31;51.14;101157.38;5280783;26;121535;-80
2024/04/15 04:03:30;;;;;;;9.32;2.97;;;;;;;12.31;50.85;101151.22;5261113;26;123041;-80
2024/04/15 04:05:58;;;;;;;7.68;2.22;;;;;;;12.30;51.06;101144.19;5260075;26;112491;-79
2024/04/15 04:08:39;;;;;;;8.50;2.35;;;;;;;12.30;50.94;101149.50;5258389;26;113169;-80
2024/04/15 04:11:07;;;;;;;8.93;2.63;;;;;;;12.28;50.86;101146.91;5266083;26;122151;-80
2024/04/15 04:13:35;;;;;;;9.55;2.60;;;;;;;12.25;50.74;101145.25;5252681;26;122781;-80
2024/04/15 04:16:03;;;;;;;13.07;3.38;;;;;;;12.24;50.90;101135.59;5285974;26;113608;-80
2024/04/15 04:18:31;;;;;;;6.95;2.10;;;;;;;12.21;50.87;101130.41;5291306;26;113078;-81
2024/04/15 04:20:59;;;;;;;9.48;2.42;;;;;;;12.19;50.87;101124.31;5272270;26;123545;-79
2024/04/15 04:23:26;;;;;;;7.68;2.47;;;;;;;12.18;50.99;101124.38;5258013;26;120905;-80
2024/04/15 04:25:54;;;;;;;9.20;2.38;;;;;;;12.16;51.02;101127.09;5280657;26;112432;-80
2024/04/15 04:28:21;;;;;;;9.32;2.72;;;;;;;12.15;50.97;101128.06;5284356;26;115757;-80
2024/04/15 04:30:48;;;;;;;9.50;2.72;;;;;;;12.12;50.78;101120.22;5289709;26;121843;-80
2024/04/15 04:33:16;;;;;;;8.60;2.78;;;;;;;12.10;51.00;101119.44;5276322;26;122398;-81
2024/04/15 04:35:43;;;;;;;6.93;2.22;;;;;;;12.07;51.10;101116.91;5244254;26;112222;-81
2024/04/15 04:38:10;;;;;;;9.38;2.05;;;;;;;12.04;50.60;101104.66;5281886;26;112233;-80
2024/04/15 04:40:38;;;;;;;9.75;2.20;;;;;;;12.00;50.80;101099.56;5276633;26;121381;-80
2024/04/15 04:43:05;;;;;;;7.25;1.80;;;;;;;11.97;50.97;101083.78;5271084;26;121701;-80
2024/04/15 04:45:33;;;;;;;4.97;1.95;;;;;;;11.98;50.81;101085.50;5258058;26;112365;-80
2024/04/15 04:48:00;;;;;;;8.25;1.85;;;;;;;11.98;50.76;101085.50;5277479;26;112278;-80
2024/04/15 04:50:28;;;;;;;8.98;2.10;;;;;;;11.98;50.98;101088.13;5268890;26;122192;-80
2024/04/15 04:52:56;;;;;;;6.57;1.85;;;;;;;11.98;50.81;101085.50;5282945;26;121795;-80
2024/04/15 04:55:23;;;;;;;8.02;1.98;;;;;;;11.98;50.87;101085.50;5268508;26;113150;-80
2024/04/15 04:57:51;;;;;;;5.28;1.55;;;;;;;11.97;50.80;101083.78;5273660;26;113306;-80
2024/04/15 05:00:18;;;;;;;7.07;2.33;;;;;;;11.97;50.90;101081.13;5275932;26;122031;-80
2024/04/15 05:02:46;;;;;;;10.30;2.20;;;;;;;11.96;51.04;101082.03;5235029;26;121079;-80
2024/04/15 05:05:14;;;;;;;5.97;2.15;;;;;;;11.97;50.79;101076.66;5289570;26;112594;-81
2024/04/15 05:07:41;;;;;;;8.02;1.98;;;;;;;11.98;50.85;101074.88;5226830;26;112385;-80
2024/04/15 05:10:09;;;;;;;5.28;1.88;;;;;;;11.98;50.95;101077.53;5259242;26;122083;-79
2024/04/15 05:12:36;;;;;;;4.20;1.70;;;;;;;11.98;51.02;101074.88;5262540;26;123783;-80
2024/04/15 05:15:04;;;;;;;6.90;2.20;;;;;;;11.99;50.97;101071.28;5277105;26;112301;-80
2024/04/15 05:17:31;;;;;;;6.13;1.92;;;;;;;12.00;50.85;101067.72;5246304;26;112540;-80
2024/04/15 05:19:59;;;;;;;7.95;2.10;;;;;;;12.02;51.07;101065.84;5278640;26;123014;-79
2024/04/15 05:22:26;;;;;;;9.38;2.03;;;;;;;12.03;50.93;101063.09;5286987;26;122403;-79
2024/04/15 05:24:54;;;;;;;4.15;2.15;;;;;;;12.04;51.03;101063.97;5249374;26;112133;-80
2024/04/15 05:27:22;;;;;;;8.50;2.15;;;;;;;12.04;50.63;101063.97;5290476;26;112381;-80
2024/04/15 05:29:49;;;;;;;7.13;2.00;;;;;;;12.04;50.95;101053.38;5281603;26;121947;-80
2024/04/15 05:32:16;;;;;;;9.65;2.17;;;;;;;12.05;50.90;101057.72;5284343;26;123821;-80
2024/04/15 05:34:44;;;;;;;8.32;2.10;;;;;;;12.05;50.88;101060.38;5250823;26;112428;-80
2024/04/15 05:37:11;;;;;;;6.15;2.00;;;;;;;12.02;51.08;101049.94;5285102;26;112433;-80
2024/04/15 05:39:39;;;;;;;6.38;1.98;;;;;;;12.02;50.93;101050.78;5259227;26;121220;-80
2024/04/15 05:42:06;;;;;;;7.50;2.70;;;;;;;12.00;50.91;101038.53;5283806;26;122805;-80
2024/04/15 05:44:34;;;;;;;6.50;1.95;;;;;;;11.99;50.94;101039.44;5260826;26;115223;-80
2024/04/15 05:47:01;;;;;;;5.32;1.90;;;;;;;11.99;51.04;101050.06;5231962;26;112579;-79
2024/04/15 05:49:30;;;;;;;6.95;2.03;;;;;;;11.99;51.15;101039.44;5256408;26;121937;-80
2024/04/15 05:51:58;;;;;;;8.00;1.98;;;;;;;11.99;50.83;101039.44;5282568;26;122207;-79
2024/04/15 05:54:25;;;;;;;8.40;2.28;;;;;;;12.02;51.15;101041.97;5274591;26;113051;-80
2024/04/15 05:56:52;;;;;;;8.05;2.13;;;;;;;12.02;51.16;101039.31;5254441;26;113620;-79
2024/04/15 05:59:20;;;;;;;7.35;1.90;;;;;;;12.06;51.12;101030.25;5283328;26;122280;-79
2024/04/15 06:01:47;;;;;;;6.82;2.22;;;;;;;12.06;51.26;101023.16;5263209;26;121679;-79
2024/04/15 06:04:15;;;;;;;9.40;1.90;;;;;;;12.09;51.02;101024.78;5269587;26;112287;-79
2024/04/15 06:06:43;;;;;;;9.18;2.30;;;;;;;12.12;51.08;101040.56;5265915;26;113272;-80
2024/04/15 06:09:11;;;;;;;7.82;2.40;;;;;;;12.15;51.33;101029.81;5294631;26;121827;-79
2024/04/15 06:11:38;;;;;;;4.57;1.92;;;;;;;12.18;51.19;101026.97;5254586;26;121679;-80
2024/04/15 06:14:06;;;;;;;7.25;2.13;;;;;;;12.22;51.20;101025.94;5269148;26;112461;-80
2024/04/15 06:16:33;;;;;;;9.15;2.15;;;;;;;12.27;51.24;101023.03;5286426;26;112840;-80
2024/04/15 06:19:01;;;;;;;4.65;1.77;;;;;;;12.32;51.31;101025.44;5250252;26;121644;-78
2024/04/15 06:21:28;;;;;;;7.15;1.92;;;;;;;12.39;51.37;101026.88;5268082;26;122608;-79
2024/04/15 06:23:55;;;;;;;10.52;2.22;;;;;;;12.45;51.39;101015.94;5278025;26;112299;-80
2024/04/15 06:26:23;;;;;;;8.52;2.30;;;;;;;12.50;51.37;101008.59;5269035;26;113512;-80
2024/04/15 06:28:55;;;;;;;7.72;1.77;;;;;;;12.54;51.61;101010.16;5297358;26;123014;-80
2024/04/15 06:31:34;;;;;;;6.07;1.63;;;;;;;12.60;51.54;101003.66;5274106;26;121744;-80
2024/04/15 06:34:02;;;;;;;10.27;2.08;;;;;;;12.68;51.40;101008.59;5263540;26;113710;-80
2024/04/15 06:36:30;;;;;;;9.48;2.00;;;;;;;12.79;51.52;100998.25;5280827;26;114186;-80
2024/04/15 06:39:09;;;;;;;6.30;1.80;;;;;;;12.88;51.40;100996.94;5249888;26;121739;-80
2024/04/15 06:41:49;;;;;;;7.88;1.88;;;;;;;12.95;51.24;100993.03;5249531;26;120319;-81
2024/04/15 06:44:17;;;;;;;5.45;2.10;;;;;;;13.00;51.29;100991.84;5245115;26;111329;-80
2024/04/15 06:46:44;;;;;;;7.30;2.05;;;;;;;13.10;51.23;100991.34;5283835;26;112358;-82
2024/04/15 06:49:12;;;;;;;4.93;1.60;;;;;;;13.19;51.36;100986.41;5280965;26;120066;-80
2024/04/15 06:51:39;;;;;;;4.45;1.70;;;;;;;13.30;51.17;100961.00;5307728;26;119583;-83
2024/04/15 06:54:07;;;;;;;6.13;2.03;;;;;;;13.41;51.23;100967.50;5288763;26;113791;-80
2024/04/15 06:56:34;;;;;;;6.82;1.63;;;;;;;13.55;51.05;100960.56;5290004;26;112536;-80
2024/04/15 06:59:02;;;;;;;7.80;1.85;;;;;;;13.64;51.09;100944.09;5283822;26;121293;-81
2024/04/15 07:01:33;;;;;;;7.90;1.90;;;;;;;13.76;50.98;100946.03;5276166;26;121771;-81
2024/04/15 07:04:06;;;;;;;6.47;1.77;;;;;;;13.89;51.01;100937.38;5253624;26;112718;-80
2024/04/15 07:06:34;;;;;;;5.53;1.98;;;;;;;14.01;50.88;100937.53;5256129;26;112829;-80
2024/04/15 07:09:01;;;;;;;6.10;1.55;;;;;;;14.12;50.72;100931.56;5289019;26;123095;-79
2024/04/15 07:11:28;;;;;;;6.07;2.08;;;;;;;14.24;50.64;100922.00;5279500;26;122919;-80
2024/04/15 07:13:56;;;;;;;6.38;1.75;;;;;;;14.35;50.38;100919.56;5282117;26;113379;-80
2024/04/15 07:16:23;;;;;;;5.60;1.55;;;;;;;14.45;50.39;100919.88;5287029;26;112477;-80
2024/04/15 07:18:51;;;;;;;4.72;1.58;;;;;;;14.58;50.55;100920.88;5277646;26;122375;-80
2024/04/15 07:21:19;;;;;;;7.60;1.83;;;;;;;14.70;50.37;100907.75;5269547;26;122200;-80
2024/04/15 07:23:49;;;;;;;9.02;1.73;;;;;;;14.82;50.01;100900.78;5282528;26;113568;-81
2024/04/15 07:26:16;;;;;;;6.90;1.77;;;;;;;14.94;50.29;100905.38;5288345;26;112415;-81
2024/04/15 07:28:43;;;;;;;7.78;1.70;;;;;;;15.06;50.03;100898.41;5287444;26;121507;-81
2024/04/15 07:31:11;;;;;;;4.47;1.92;;;;;;;15.19;49.89;100894.00;5262426;26;120973;-80
2024/04/15 07:33:38;;;;;;;8.02;1.80;;;;;;;15.32;49.87;100881.59;5267988;26;112813;-81
2024/04/15 07:36:05;;;;;;;10.68;2.17;;;;;;;15.47;49.60;100877.06;5280457;26;112250;-81
2024/04/15 07:38:33;;;;;;;10.18;1.88;;;;;;;15.54;49.64;100877.53;5284488;26;122178;-82
2024/04/15 07:41:00;;;;;;;7.72;1.85;;;;;;;15.60;49.33;100874.47;5279428;26;121430;-82
2024/04/15 07:43:31;;;;;;;7.95;2.35;;;;;;;15.64;49.29;100862.63;5268231;26;110493;-81
2024/04/15 07:45:58;;;;;;;6.25;1.80;;;;;;;15.70;48.89;100867.53;5233221;26;111227;-80
2024/04/15 07:48:25;;;;;;;8.27;1.73;;;;;;;15.69;48.50;100856.97;5269835;26;121960;-81
2024/04/15 07:50:54;;;;;;;9.02;2.00;;;;;;;15.64;48.62;100846.59;5273764;26;121444;-80
2024/04/15 07:53:21;;;;;;;5.68;2.00;;;;;;;15.65;48.58;100853.66;5276564;26;112506;-81
2024/04/15 07:55:48;;;;;;;6.88;1.90;;;;;;;15.66;48.43;100834.00;5279090;26;111321;-81
2024/04/15 07:58:16;;;;;;;4.40;2.00;;;;;;;15.65;48.41;100853.66;5256471;26;121361;-82
2024/04/15 08:00:43;;;;;;;7.07;1.90;;;;;;;15.63;48.43;100823.50;5283238;26;121750;-81
2024/04/15 08:03:11;;;;;;;7.10;1.92;;;;;;;15.64;48.41;100822.56;5280136;26;111587;-81
2024/04/15 08:05:40;;;;;;;7.32;1.60;;;;;;;15.64;48.26;100819.91;5249869;26;111629;-83
2024/04/15 08:08:07;;;;;;;8.80;1.85;;;;;;;15.64;48.34;100814.56;5290070;26;122596;-82
2024/04/15 08:10:35;;;;;;;8.55;2.47;;;;;;;15.66;48.42;100817.13;5280141;26;121292;-81
2024/04/15 08:13:03;;;;;;;6.30;2.15;;;;;;;15.69;48.05;100812.44;5273580;26;111461;-81
2024/04/15 08:15:31;;;;;;;6.07;1.95;;;;;;;15.70;48.17;100803.47;5281764;26;114973;-79
2024/04/15 08:18:00;;;;;;;4.82;1.80;;;;;;;15.74;48.33;100799.66;5273747;26;123094;-81
2024/04/15 08:20:27;;;;;;;4.82;1.80;;;;;;;15.83;48.16;100797.34;5278476;26;120604;-80
2024/04/15 08:22:55;;;;;;;4.32;1.63;;;;;;;15.93;48.44;100793.06;5274699;26;112540;-81
2024/04/15 08:25:23;;;;;;;7.75;1.83;;;;;;;16.01;47.93;100796.09;5291461;26;113491;-80
2024/04/15 08:27:51;;;;;;;6.85;1.80;;;;;;;16.08;48.16;100786.66;5285823;26;122552;-82
2024/04/15 08:30:22;;;;;;;9.43;1.70;;;;;;;16.15;47.97;100779.94;5287292;26;122987;-79
2024/04/15 08:32:51;;;;;;;4.57;1.60;;;;;;;16.19;47.87;100777.91;5294394;26;112039;-80
2024/04/15 08:35:18;;;;;;;5.18;1.55;;;;;;;16.22;47.80;100771.50;5269197;26;112347;-81
2024/04/15 08:37:46;;;;;;;3.60;1.40;;;;;;;16.21;47.30;100756.44;5276986;26;122271;-83
2024/04/15 08:40:13;;;;;;;7.90;1.98;;;;;;;16.18;47.34;100759.31;5262125;26;121534;-81
2024/04/15 08:42:50;;;;;;;7.90;1.42;;;;;;;16.17;47.40;100738.91;5259578;26;111501;-82
2024/04/15 08:45:19;;;;;;;5.57;1.60;;;;;;;16.22;47.54;100736.75;5281296;26;114367;-82
2024/04/15 08:47:52;;;;;;;5.57;1.50;;;;;;;16.26;47.54;100732.91;5257747;26;122409;-82
2024/04/15 08:50:22;;;;;;;5.57;1.67;;;;;;;16.32;47.19;100719.13;5249021;26;123209;-82
2024/04/15 08:52:54;;;;;;;5.97;1.67;;;;;;;16.34;47.07;100720.69;5286207;26;112888;-82
2024/04/15 08:55:23;;;;;;;5.45;1.63;;;;;;;16.37;46.86;100711.63;5278558;26;114735;-83
2024/04/15 08:57:52;;;;;;;6.28;1.50;;;;;;;16.40;47.13;100710.53;5283897;26;122004;-83
2024/04/15 09:00:21;;;;;;;5.38;2.00;;;;;;;16.50;46.93;100706.22;5260226;26;122698;-83
2024/04/15 09:02:51;;;;;;;5.63;1.60;;;;;;;16.65;47.35;100696.25;5250680;26;113089;-81
2024/04/15 09:05:19;;;;;;;3.40;1.60;;;;;;;16.79;46.96;100693.44;5264359;26;115025;-82
2024/04/15 09:07:48;;;;;;;3.50;1.40;;;;;;;16.86;46.78;100686.69;5268034;26;122017;-82
2024/04/15 09:10:16;;;;;;;4.07;1.45;;;;;;;16.91;45.97;100684.53;5244605;26;122635;-83
2024/04/15 09:12:44;;;;;;;5.82;1.58;;;;;;;16.93;46.12;100685.28;5279243;26;112327;-84
2024/04/15 09:15:13;;;;;;;6.10;1.50;;;;;;;16.96;46.02;100675.31;5286976;26;112240;-82
2024/04/15 09:17:41;;;;;;;7.20;1.30;;;;;;;16.91;45.53;100679.19;5284022;26;124304;-83
2024/04/15 09:20:10;;;;;;;5.97;1.65;;;;;;;16.86;45.67;100665.28;5279934;26;122186;-82
2024/04/15 09:22:38;;;;;;;5.38;1.63;;;;;;;16.82;45.35;100642.41;5288092;26;110612;-82
2024/04/15 09:25:06;;;;;;;5.30;1.70;;;;;;;16.77;45.39;100655.25;5290643;26;112825;-82
2024/04/15 09:27:33;;;;;;;5.97;1.50;;;;;;;16.75;45.55;100646.47;5255804;26;123001;-82
2024/04/15 09:30:03;;;;;;;8.57;2.00;;;;;;;16.75;45.21;100633.09;5264827;26;121085;-82
2024/04/15 09:32:30;;;;;;;4.93;1.67;;;;;;;16.84;45.66;100624.44;5249190;26;111291;-81
2024/04/15 09:35:00;;;;;;;4.35;1.35;;;;;;;16.95;45.47;100620.09;5243715;26;111735;-84
2024/04/15 09:37:28;;;;;;;6.05;1.40;;;;;;;17.11;45.79;100613.47;5290988;26;121723;-84
2024/04/15 09:39:56;;;;;;;5.10;1.90;;;;;;;17.30;45.58;100604.88;5264172;26;122804;-83
2024/04/15 09:42:24;;;;;;;5.30;1.77;;;;;;;17.48;45.40;100580.34;5254436;26;112157;-83
2024/04/15 09:44:51;;;;;;;5.40;1.42;;;;;;;17.63;45.18;100572.88;5240530;26;111593;-84
2024/04/15 09:47:19;;;;;;;5.03;1.50;;;;;;;17.71;45.11;100571.31;5263460;26;123131;-83
2024/04/15 09:49:47;;;;;;;2.45;1.23;;;;;;;17.75;44.42;100560.38;5285257;26;123030;-84
2024/04/15 09:52:20;;;;;;;4.40;1.60;;;;;;;17.70;44.56;100564.25;5287143;26;113181;-85
2024/04/15 09:55:06;;;;;;;3.53;1.40;;;;;;;17.67;44.25;100555.63;5281170;26;113743;-82
2024/04/15 09:57:39;;;;;;;3.97;1.40;;;;;;;17.64;43.77;100548.66;5263652;26;123098;-83
2024/04/15 10:00:13;;;;;;;3.65;1.20;;;;;;;17.63;43.86;100546.09;5279676;26;123894;-84
2024/04/15 10:02:51;;;;;;;6.05;1.15;;;;;;;17.60;43.93;100544.53;5280155;26;112529;-85
2024/04/15 10:05:25;;;;;;;5.03;1.42;;;;;;;17.56;43.97;100529.69;5265581;26;109728;-84
2024/04/15 10:07:56;;;;;;;6.15;1.40;;;;;;;17.56;43.86;100518.97;5278703;26;121935;-83
2024/04/15 10:10:27;;;;;;;6.15;1.40;;;;;;;17.57;43.50;100504.59;5278893;26;121253;-83
2024/04/15 10:12:59;;;;;;;6.45;1.38;;;;;;;17.58;43.62;100498.28;5277711;26;112990;-82
2024/04/15 10:15:32;;;;;;;3.10;1.00;;;;;;;17.61;43.69;100484.66;5271953;26;112005;-82
2024/04/15 10:18:13;;;;;;;4.63;1.20;;;;;;;17.59;43.05;100470.50;5259715;26;122444;-82
2024/04/15 10:20:43;;;;;;;5.28;1.00;;;;;;;17.56;43.31;100478.81;5256942;26;121487;-82
2024/04/15 10:23:14;;;;;;;5.65;1.30;;;;;;;17.49;43.15;100450.81;5243533;26;113188;-83
2024/04/15 10:25:42;;;;;;;3.85;1.10;;;;;;;17.43;43.21;100427.22;5261557;26;110681;-84
2024/04/15 10:28:11;;;;;;;3.58;1.20;;;;;;;17.38;42.85;100429.41;5252671;26;121779;-82
2024/04/15 10:30:40;;;;;;;7.10;1.30;;;;;;;17.37;42.91;100415.19;5268095;26;122291;-82
2024/04/15 10:33:11;;;;;;;3.00;1.30;;;;;;;17.38;43.20;100413.34;5280788;26;110819;-82
2024/04/15 10:35:40;;;;;;;5.00;1.15;;;;;;;17.42;43.32;100404.09;5255663;26;111890;-83
2024/04/15 10:38:09;;;;;;;6.13;1.45;;;;;;;17.46;43.11;100401.06;5288583;26;121792;-83
2024/04/15 10:40:40;;;;;;;5.90;1.23;;;;;;;17.55;43.18;100394.09;5257007;26;121047;-82
2024/04/15 10:43:07;;;;;;;4.18;1.30;;;;;;;17.58;42.97;100383.13;5253839;26;112614;-84
2024/04/15 10:45:35;;;;;;;3.60;1.20;;;;;;;17.57;42.80;100381.41;5284068;26;113201;-81
2024/04/15 10:48:03;;;;;;;2.70;1.10;;;;;;;17.55;42.74;100371.81;5278954;26;122152;-82
2024/04/15 10:50:32;;;;;;;3.38;1.33;;;;;;;17.51;42.80;100377.41;5255021;26;121712;-85
2024/04/15 10:52:59;;;;;;;2.78;1.15;;;;;;;17.47;42.96;100369.78;5250251;26;112193;-83
2024/04/15 10:55:27;;;;;;;4.03;1.30;;;;;;;17.41;42.68;100360.41;5247975;26;112825;-82
2024/04/15 10:57:54;;;;;;;7.03;1.27;;;;;;;17.32;42.65;100351.28;5254563;26;121401;-81
2024/04/15 11:00:24;;;;;;;5.75;1.55;;;;;;;17.19;42.66;100347.06;5248288;26;122908;-82
2024/04/15 11:02:53;;;;;;;6.35;1.42;;;;;;;17.07;43.19;100335.53;5254324;26;113070;-82
2024/04/15 11:05:22;;;;;;;5.50;1.50;;;;;;;16.98;43.38;100325.56;5250571;26;112374;-82
2024/04/15 11:07:53;;;;;;;2.78;1.10;;;;;;;16.88;43.35;100296.88;5278393;26;121578;-82
2024/04/15 11:10:21;;;;;;;2.75;1.35;;;;;;;16.86;43.64;100284.63;5283893;26;120972;-82
2024/04/15 11:12:52;;;;;;;5.22;1.20;;;;;;;16.84;43.69;100282.06;5278702;26;112425;-83
2024/04/15 11:15:21;;;;;;;6.28;1.50;;;;;;;16.80;43.67;100280.59;5286986;26;112795;-85
2024/04/15 11:17:53;;;;;;;5.38;1.15;;;;;;;16.77;43.77;100264.78;5277188;26;122512;-82
2024/04/15 11:20:24;;;;;;;4.38;1.48;;;;;;;16.72;43.73;100262.44;5283428;26;122403;-83